Time,TemperatureF,DewpointF,PressureIn,WindDirection,WindDirectionDegrees,WindSpeedMPH,WindSpeedGustMPH,Humidity,HourlyPrecipIn,Conditions,Clouds,dailyrainin,SoftwareType,DateUTC
2013-05-29 00:04:00,73.8,65.4,29.91,SW,233,0.0,0.0,75,0.00,,,0.00,Wunderground v.1.15,2013-05-29 05:04:00,
2013-05-29 00:09:00,73.8,65.4,29.91,WSW,255,0.0,0.0,75,0.00,,,0.00,Wunderground v.1.15,2013-05-29 05:09:00,
2013-05-29 00:15:00,74.0,64.8,29.92,West,274,1.0,4.0,73,0.00,,,0.00,Wunderground v.1.15,2013-05-29 05:15:00,
2013-05-29 00:20:00,74.3,64.7,29.91,WSW,256,1.0,1.0,72,0.00,,,0.00,Wunderground v.1.15,2013-05-29 05:20:00,
2013-05-29 00:25:00,74.5,64.5,29.92,SW,229,2.0,4.0,71,0.00,,,0.00,Wunderground v.1.15,2013-05-29 05:25:00,
2013-05-29 00:30:00,74.6,64.2,29.92,SE,144,1.0,1.0,70,0.00,,,0.00,Wunderground v.1.15,2013-05-29 05:30:00,
2013-05-29 00:35:00,74.8,64.4,29.92,ESE,119,2.0,7.0,70,0.00,,,0.00,Wunderground v.1.15,2013-05-29 05:35:00,
2013-05-29 00:40:00,74.8,63.9,29.92,SSW,194,1.0,1.0,69,0.00,,,0.00,Wunderground v.1.15,2013-05-29 05:40:00,
2013-05-29 00:46:00,74.8,63.5,29.92,WSW,255,1.0,3.0,68,0.00,,,0.00,Wunderground v.1.15,2013-05-29 05:46:00,
2013-05-29 00:51:00,74.8,63.9,29.93,West,262,1.0,1.0,69,0.00,,,0.00,Wunderground v.1.15,2013-05-29 05:51:00,
2013-05-29 00:56:00,74.7,63.4,29.93,WSW,250,1.0,3.0,68,0.00,,,0.00,Wunderground v.1.15,2013-05-29 05:56:00,
2013-05-29 01:02:00,74.6,63.3,29.93,SSW,205,1.0,3.0,68,0.00,,,0.00,Wunderground v.1.15,2013-05-29 06:02:00,
2013-05-29 01:07:00,74.6,63.3,29.93,West,269,1.0,3.0,68,0.00,,,0.00,Wunderground v.1.15,2013-05-29 06:07:00,
2013-05-29 01:12:00,74.4,63.1,29.93,WSW,249,1.0,1.0,68,0.00,,,0.00,Wunderground v.1.15,2013-05-29 06:12:00,
2013-05-29 01:17:00,74.3,63.5,29.94,South,172,1.0,3.0,69,0.00,,,0.00,Wunderground v.1.15,2013-05-29 06:17:00,
2013-05-29 01:23:00,74.1,63.3,29.94,ESE,119,1.0,1.0,69,0.00,,,0.00,Wunderground v.1.15,2013-05-29 06:23:00,
2013-05-29 01:28:00,73.9,63.5,29.94,West,276,0.0,2.0,70,0.00,,,0.00,Wunderground v.1.15,2013-05-29 06:28:00,
2013-05-29 01:33:00,73.7,63.3,29.95,SW,229,0.0,3.0,70,0.00,,,0.00,Wunderground v.1.15,2013-05-29 06:33:00,
2013-05-29 01:38:00,73.3,63.3,29.95,ESE,115,0.0,3.0,71,0.00,,,0.00,Wunderground v.1.15,2013-05-29 06:38:00,
2013-05-29 01:43:00,73.1,63.5,29.95,SE,139,0.0,0.0,72,0.00,,,0.00,Wunderground v.1.15,2013-05-29 06:43:00,
2013-05-29 01:48:00,72.8,63.2,29.95,SE,136,0.0,0.0,72,0.00,,,0.00,Wunderground v.1.15,2013-05-29 06:48:00,
2013-05-29 01:53:00,72.6,63.1,29.95,SW,224,0.0,3.0,72,0.00,,,0.00,Wunderground v.1.15,2013-05-29 06:53:00,
2013-05-29 01:59:00,72.4,63.3,29.95,SW,214,0.0,3.0,73,0.00,,,0.00,Wunderground v.1.15,2013-05-29 06:59:00,
2013-05-29 02:04:00,72.2,63.4,29.95,SE,128,0.0,0.0,74,0.00,,,0.00,Wunderground v.1.15,2013-05-29 07:04:00,
2013-05-29 02:10:00,71.8,63.1,29.95,SE,146,0.0,0.0,74,0.00,,,0.00,Wunderground v.1.15,2013-05-29 07:10:00,
2013-05-29 02:15:00,71.8,63.4,29.94,SSW,204,0.0,0.0,75,0.00,,,0.00,Wunderground v.1.15,2013-05-29 07:15:00,
2013-05-29 02:20:00,71.6,63.3,29.95,SSE,166,0.0,0.0,75,0.00,,,0.00,Wunderground v.1.15,2013-05-29 07:20:00,
2013-05-29 02:25:00,71.3,63.0,29.94,SW,217,0.0,0.0,75,0.00,,,0.00,Wunderground v.1.15,2013-05-29 07:25:00,
2013-05-29 02:30:00,71.2,62.9,29.94,WSW,241,0.0,0.0,75,0.00,,,0.00,Wunderground v.1.15,2013-05-29 07:30:00,
2013-05-29 02:35:00,71.0,62.7,29.94,WSW,253,0.0,0.0,75,0.00,,,0.00,Wunderground v.1.15,2013-05-29 07:35:00,
2013-05-29 02:40:00,70.9,63.0,29.94,SSE,156,0.0,0.0,76,0.00,,,0.00,Wunderground v.1.15,2013-05-29 07:40:00,
2013-05-29 02:46:00,70.9,62.6,29.95,ESE,123,0.0,0.0,75,0.00,,,0.00,Wunderground v.1.15,2013-05-29 07:46:00,
2013-05-29 02:51:00,70.9,62.6,29.95,SE,139,0.0,0.0,75,0.00,,,0.00,Wunderground v.1.15,2013-05-29 07:51:00,
2013-05-29 02:56:00,70.7,62.4,29.95,SSE,148,0.0,0.0,75,0.00,,,0.00,Wunderground v.1.15,2013-05-29 07:56:00,
2013-05-29 03:02:00,70.6,62.7,29.95,SSW,208,0.0,1.0,76,0.00,,,0.00,Wunderground v.1.15,2013-05-29 08:02:00,
2013-05-29 03:07:00,70.6,62.7,29.96,WSW,255,0.0,2.0,76,0.00,,,0.00,Wunderground v.1.15,2013-05-29 08:07:00,
2013-05-29 03:13:00,70.4,62.5,29.96,ESE,120,0.0,0.0,76,0.00,,,0.00,Wunderground v.1.15,2013-05-29 08:13:00,
2013-05-29 03:18:00,69.8,63.0,29.95,ESE,120,0.0,1.0,79,0.00,,,0.00,Wunderground v.1.15,2013-05-29 08:18:00,
2013-05-29 03:23:00,69.2,62.4,29.95,ESE,122,0.0,0.0,79,0.00,,,0.00,Wunderground v.1.15,2013-05-29 08:23:00,
2013-05-29 03:28:00,68.9,62.1,29.94,South,188,0.0,0.0,79,0.00,,,0.00,Wunderground v.1.15,2013-05-29 08:28:00,
2013-05-29 03:34:00,68.9,62.1,29.94,WSW,253,0.0,0.0,79,0.00,,,0.00,Wunderground v.1.15,2013-05-29 08:34:00,
2013-05-29 03:39:00,69.2,62.0,29.95,West,269,0.0,0.0,78,0.00,,,0.00,Wunderground v.1.15,2013-05-29 08:39:00,
2013-05-29 03:44:00,69.2,62.4,29.95,SE,145,0.0,1.0,79,0.00,,,0.00,Wunderground v.1.15,2013-05-29 08:44:00,
2013-05-29 03:49:00,69.0,62.2,29.95,SSE,148,0.0,1.0,79,0.00,,,0.00,Wunderground v.1.15,2013-05-29 08:49:00,
2013-05-29 03:54:00,68.8,62.0,29.96,West,263,0.0,1.0,79,0.00,,,0.00,Wunderground v.1.15,2013-05-29 08:54:00,
2013-05-29 03:59:00,68.7,61.9,29.96,SW,231,0.0,1.0,79,0.00,,,0.00,Wunderground v.1.15,2013-05-29 08:59:00,
2013-05-29 04:05:00,68.8,62.0,29.96,SSE,168,0.0,1.0,79,0.00,,,0.00,Wunderground v.1.15,2013-05-29 09:05:00,
2013-05-29 04:10:00,68.9,61.8,29.96,SW,222,1.0,1.0,78,0.00,,,0.00,Wunderground v.1.15,2013-05-29 09:10:00,
2013-05-29 04:15:00,69.0,61.9,29.96,SW,222,1.0,2.0,78,0.00,,,0.00,Wunderground v.1.15,2013-05-29 09:15:00,
2013-05-29 04:20:00,69.1,61.9,29.96,SSW,204,0.0,0.0,78,0.00,,,0.00,Wunderground v.1.15,2013-05-29 09:20:00,
2013-05-29 04:26:00,69.1,61.6,29.97,West,271,0.0,0.0,77,0.00,,,0.00,Wunderground v.1.15,2013-05-29 09:26:00,
2013-05-29 04:31:00,69.0,61.9,29.97,SSE,149,0.0,0.0,78,0.00,,,0.00,Wunderground v.1.15,2013-05-29 09:31:00,
2013-05-29 04:36:00,68.7,61.9,29.97,SE,131,0.0,0.0,79,0.00,,,0.00,Wunderground v.1.15,2013-05-29 09:36:00,
2013-05-29 04:41:00,68.4,62.0,29.97,East,91,0.0,0.0,80,0.00,,,0.00,Wunderground v.1.15,2013-05-29 09:41:00,
2013-05-29 04:46:00,67.8,62.1,29.98,East,91,0.0,0.0,82,0.00,,,0.00,Wunderground v.1.15,2013-05-29 09:46:00,
2013-05-29 04:51:00,67.1,61.8,29.98,ESE,120,0.0,0.0,83,0.00,,,0.00,Wunderground v.1.15,2013-05-29 09:51:00,
2013-05-29 04:57:00,66.5,61.8,29.98,ESE,117,0.0,0.0,85,0.00,,,0.00,Wunderground v.1.15,2013-05-29 09:57:00,
2013-05-29 05:02:00,66.0,61.4,29.98,ESE,117,0.0,0.0,85,0.00,,,0.00,Wunderground v.1.15,2013-05-29 10:02:00,
2013-05-29 05:08:00,65.6,61.3,29.98,ESE,117,0.0,0.0,86,0.00,,,0.00,Wunderground v.1.15,2013-05-29 10:08:00,
2013-05-29 05:13:00,65.4,61.1,29.98,ESE,117,0.0,0.0,86,0.00,,,0.00,Wunderground v.1.15,2013-05-29 10:13:00,
2013-05-29 05:18:00,65.2,61.2,29.98,ESE,117,0.0,0.0,87,0.00,,,0.00,Wunderground v.1.15,2013-05-29 10:18:00,
2013-05-29 05:23:00,65.0,61.0,29.98,ESE,117,0.0,0.0,87,0.00,,,0.00,Wunderground v.1.15,2013-05-29 10:23:00,
2013-05-29 05:28:00,64.9,61.3,29.99,ESE,117,0.0,0.0,88,0.00,,,0.00,Wunderground v.1.15,2013-05-29 10:28:00,
2013-05-29 05:33:00,64.9,61.3,29.99,WNW,288,0.0,0.0,88,0.00,,,0.00,Wunderground v.1.15,2013-05-29 10:33:00,
2013-05-29 05:39:00,64.9,61.3,29.99,SE,141,0.0,0.0,88,0.00,,,0.00,Wunderground v.1.15,2013-05-29 10:39:00,
2013-05-29 05:44:00,64.9,61.3,29.99,SE,134,0.0,0.0,88,0.00,,,0.00,Wunderground v.1.15,2013-05-29 10:44:00,
2013-05-29 05:49:00,65.1,61.5,30.00,SE,143,0.0,0.0,88,0.00,,,0.00,Wunderground v.1.15,2013-05-29 10:49:00,
2013-05-29 05:54:00,65.1,61.1,30.00,SE,144,0.0,0.0,87,0.00,,,0.00,Wunderground v.1.15,2013-05-29 10:54:00,
2013-05-29 05:59:00,65.0,61.4,30.00,SE,144,0.0,0.0,88,0.00,,,0.00,Wunderground v.1.15,2013-05-29 10:59:00,
2013-05-29 06:05:00,65.0,61.7,30.00,SW,221,0.0,0.0,89,0.00,,,0.00,Wunderground v.1.15,2013-05-29 11:05:00,
2013-05-29 06:10:00,64.9,61.6,30.00,SSE,149,0.0,0.0,89,0.00,,,0.00,Wunderground v.1.15,2013-05-29 11:10:00,
2013-05-29 06:16:00,65.2,61.6,30.00,SE,134,0.0,0.0,88,0.00,,,0.00,Wunderground v.1.15,2013-05-29 11:16:00,
2013-05-29 06:22:00,65.8,62.1,30.00,ESE,120,0.0,1.0,88,0.00,,,0.00,Wunderground v.1.15,2013-05-29 11:22:00,
2013-05-29 06:27:00,66.2,62.2,30.00,SW,224,0.0,1.0,87,0.00,,,0.00,Wunderground v.1.15,2013-05-29 11:27:00,
2013-05-29 06:32:00,66.4,62.4,30.00,NE,35,0.0,0.0,87,0.00,,,0.00,Wunderground v.1.15,2013-05-29 11:32:00,
2013-05-29 06:37:00,66.8,62.5,30.00,SE,124,0.0,0.0,86,0.00,,,0.00,Wunderground v.1.15,2013-05-29 11:37:00,
2013-05-29 06:43:00,67.9,63.6,30.00,ESE,107,0.0,0.0,86,0.00,,,0.00,Wunderground v.1.15,2013-05-29 11:43:00,
2013-05-29 06:48:00,69.0,64.3,30.00,ENE,75,0.0,0.0,85,0.00,,,0.00,Wunderground v.1.15,2013-05-29 11:48:00,
2013-05-29 06:53:00,69.9,64.2,30.00,ESE,107,0.0,0.0,82,0.00,,,0.00,Wunderground v.1.15,2013-05-29 11:53:00,
2013-05-29 06:58:00,71.0,64.5,30.00,SE,132,0.0,0.0,80,0.00,,,0.00,Wunderground v.1.15,2013-05-29 11:58:00,
2013-05-29 07:04:00,71.9,63.9,30.00,SE,133,0.0,1.0,76,0.00,,,0.00,Wunderground v.1.15,2013-05-29 12:04:00,
2013-05-29 07:09:00,72.2,63.4,30.00,South,173,0.0,2.0,74,0.00,,,0.00,Wunderground v.1.15,2013-05-29 12:09:00,
2013-05-29 07:14:00,72.6,63.8,29.99,WSW,243,0.0,0.0,74,0.00,,,0.00,Wunderground v.1.15,2013-05-29 12:14:00,
2013-05-29 07:19:00,73.0,64.6,29.99,East,85,0.0,0.0,75,0.00,,,0.00,Wunderground v.1.15,2013-05-29 12:19:00,
2013-05-29 07:25:00,73.4,63.8,29.98,West,262,1.0,2.0,72,0.00,,,0.00,Wunderground v.1.15,2013-05-29 12:25:00,
2013-05-29 07:30:00,73.5,63.9,29.98,West,271,1.0,1.0,72,0.00,,,0.00,Wunderground v.1.15,2013-05-29 12:30:00,
2013-05-29 07:36:00,73.7,63.7,29.98,WSW,257,1.0,3.0,71,0.00,,,0.00,Wunderground v.1.15,2013-05-29 12:36:00,
2013-05-29 07:41:00,73.8,63.4,29.98,SSW,195,1.0,4.0,70,0.00,,,0.00,Wunderground v.1.15,2013-05-29 12:41:00,
2013-05-29 07:46:00,74.2,63.8,29.98,WSW,252,1.0,4.0,70,0.00,,,0.00,Wunderground v.1.15,2013-05-29 12:46:00,
2013-05-29 07:51:00,74.6,63.8,29.98,SSE,166,1.0,3.0,69,0.00,,,0.00,Wunderground v.1.15,2013-05-29 12:51:00,
2013-05-29 07:57:00,74.8,63.9,29.98,SE,134,1.0,3.0,69,0.00,,,0.00,Wunderground v.1.15,2013-05-29 12:57:00,
2013-05-29 08:02:00,74.9,63.6,29.98,SE,143,2.0,6.0,68,0.00,,,0.00,Wunderground v.1.15,2013-05-29 13:02:00,
2013-05-29 08:07:00,75.1,63.8,29.98,South,186,3.0,6.0,68,0.00,,,0.00,Wunderground v.1.15,2013-05-29 13:07:00,
2013-05-29 08:12:00,75.3,64.0,29.98,WNW,283,3.0,7.0,68,0.00,,,0.00,Wunderground v.1.15,2013-05-29 13:12:00,
2013-05-29 08:18:00,75.6,64.3,29.98,West,269,4.0,12.0,68,0.00,,,0.00,Wunderground v.1.15,2013-05-29 13:18:00,
2013-05-29 08:23:00,75.8,64.1,29.98,SW,236,4.0,6.0,67,0.00,,,0.00,Wunderground v.1.15,2013-05-29 13:23:00,
2013-05-29 08:28:00,76.0,64.2,29.98,SSW,205,4.0,7.0,67,0.00,,,0.00,Wunderground v.1.15,2013-05-29 13:28:00,
2013-05-29 08:33:00,75.9,64.6,29.99,SW,233,4.0,4.0,68,0.00,,,0.00,Wunderground v.1.15,2013-05-29 13:33:00,
2013-05-29 08:39:00,76.0,64.7,29.99,West,266,3.0,4.0,68,0.00,,,0.00,Wunderground v.1.15,2013-05-29 13:39:00,
2013-05-29 08:44:00,76.1,64.3,29.99,WSW,243,4.0,5.0,67,0.00,,,0.00,Wunderground v.1.15,2013-05-29 13:44:00,
2013-05-29 08:49:00,76.5,64.7,29.99,SSE,153,3.0,6.0,67,0.00,,,0.00,Wunderground v.1.15,2013-05-29 13:49:00,
2013-05-29 08:54:00,76.4,64.6,29.99,SE,128,3.0,10.0,67,0.00,,,0.00,Wunderground v.1.15,2013-05-29 13:54:00,
2013-05-29 08:59:00,76.6,64.8,29.99,WNW,290,5.0,11.0,67,0.00,,,0.00,Wunderground v.1.15,2013-05-29 13:59:00,
2013-05-29 09:05:00,77.0,65.6,29.99,SSW,195,4.0,10.0,68,0.00,,,0.00,Wunderground v.1.15,2013-05-29 14:05:00,
2013-05-29 09:10:00,77.6,65.3,30.00,West,260,3.0,4.0,66,0.00,,,0.00,Wunderground v.1.15,2013-05-29 14:10:00,
2013-05-29 09:15:00,78.1,66.2,29.99,SE,135,3.0,7.0,67,0.00,,,0.00,Wunderground v.1.15,2013-05-29 14:15:00,
2013-05-29 09:20:00,78.3,65.6,29.99,WNW,298,3.0,6.0,65,0.00,,,0.00,Wunderground v.1.15,2013-05-29 14:20:00,
2013-05-29 09:25:00,78.1,65.4,29.99,South,169,3.0,7.0,65,0.00,,,0.00,Wunderground v.1.15,2013-05-29 14:25:00,
2013-05-29 09:31:00,78.5,66.2,29.99,SW,220,4.0,7.0,66,0.00,,,0.00,Wunderground v.1.15,2013-05-29 14:31:00,
2013-05-29 09:36:00,79.0,67.5,29.99,WNW,289,4.0,9.0,68,0.00,,,0.00,Wunderground v.1.15,2013-05-29 14:36:00,
2013-05-29 09:41:00,79.3,67.0,29.99,SW,232,3.0,6.0,66,0.00,,,0.00,Wunderground v.1.15,2013-05-29 14:41:00,
2013-05-29 09:47:00,79.7,66.9,30.00,WNW,302,4.0,8.0,65,0.00,,,0.00,Wunderground v.1.15,2013-05-29 14:47:00,
2013-05-29 09:52:00,79.4,66.6,30.00,WSW,257,4.0,7.0,65,0.00,,,0.00,Wunderground v.1.15,2013-05-29 14:52:00,
2013-05-29 09:57:00,79.5,67.1,30.00,ESE,113,4.0,7.0,66,0.00,,,0.00,Wunderground v.1.15,2013-05-29 14:57:00,
2013-05-29 10:02:00,79.9,68.4,30.00,SW,231,3.0,4.0,68,0.00,,,0.00,Wunderground v.1.15,2013-05-29 15:02:00,
2013-05-29 10:08:00,80.7,68.7,29.99,SW,228,2.0,4.0,67,0.00,,,0.00,Wunderground v.1.15,2013-05-29 15:08:00,
2013-05-29 10:13:00,80.9,68.0,29.99,South,169,2.0,7.0,65,0.00,,,0.00,Wunderground v.1.15,2013-05-29 15:13:00,
2013-05-29 10:18:00,80.9,68.0,29.99,SSW,205,3.0,7.0,65,0.00,,,0.00,Wunderground v.1.15,2013-05-29 15:18:00,
2013-05-29 10:23:00,81.1,68.2,29.99,SW,224,4.0,7.0,65,0.00,,,0.00,Wunderground v.1.15,2013-05-29 15:23:00,
2013-05-29 10:28:00,81.0,68.1,29.99,West,264,4.0,9.0,65,0.00,,,0.00,Wunderground v.1.15,2013-05-29 15:28:00,
2013-05-29 10:33:00,81.0,68.6,29.99,SW,236,5.0,10.0,66,0.00,,,0.00,Wunderground v.1.15,2013-05-29 15:33:00,
2013-05-29 10:38:00,81.2,69.2,29.99,SW,233,5.0,10.0,67,0.00,,,0.00,Wunderground v.1.15,2013-05-29 15:38:00,
2013-05-29 10:43:00,81.6,69.6,29.99,West,276,4.0,5.0,67,0.00,,,0.00,Wunderground v.1.15,2013-05-29 15:43:00,
2013-05-29 10:49:00,82.1,69.6,29.99,East,100,3.0,6.0,66,0.00,,,0.00,Wunderground v.1.15,2013-05-29 15:49:00,
2013-05-29 10:54:00,82.5,69.5,29.99,WNW,295,3.0,9.0,65,0.00,,,0.00,Wunderground v.1.15,2013-05-29 15:54:00,
2013-05-29 10:59:00,82.8,70.3,29.99,West,260,3.0,9.0,66,0.00,,,0.00,Wunderground v.1.15,2013-05-29 15:59:00,
2013-05-29 11:05:00,83.1,69.7,29.98,SW,229,4.0,5.0,64,0.00,,,0.00,Wunderground v.1.15,2013-05-29 16:05:00,
2013-05-29 11:11:00,82.8,68.4,29.98,NW,307,4.0,7.0,62,0.00,,,0.00,Wunderground v.1.15,2013-05-29 16:11:00,
2013-05-29 11:16:00,82.5,68.6,29.98,SW,222,5.0,7.0,63,0.00,,,0.00,Wunderground v.1.15,2013-05-29 16:16:00,
2013-05-29 11:21:00,82.6,69.6,29.98,WNW,286,5.0,5.0,65,0.00,,,0.00,Wunderground v.1.15,2013-05-29 16:21:00,
2013-05-29 11:27:00,82.9,69.5,29.98,NE,46,4.0,7.0,64,0.00,,,0.00,Wunderground v.1.15,2013-05-29 16:27:00,
2013-05-29 11:32:00,83.2,68.8,29.98,West,264,4.0,10.0,62,0.00,,,0.00,Wunderground v.1.15,2013-05-29 16:32:00,
2013-05-29 11:37:00,83.1,68.7,29.98,SSE,165,5.0,12.0,62,0.00,,,0.00,Wunderground v.1.15,2013-05-29 16:37:00,
2013-05-29 11:43:00,83.2,69.3,29.98,ESE,104,5.0,7.0,63,0.00,,,0.00,Wunderground v.1.15,2013-05-29 16:43:00,
2013-05-29 11:48:00,83.7,68.3,29.98,SSW,204,4.0,9.0,60,0.00,,,0.00,Wunderground v.1.15,2013-05-29 16:48:00,
2013-05-29 11:54:00,83.5,69.6,29.98,WNW,295,6.0,11.0,63,0.00,,,0.00,Wunderground v.1.15,2013-05-29 16:54:00,
2013-05-29 11:59:00,83.5,69.1,29.98,SW,232,6.0,11.0,62,0.00,,,0.00,Wunderground v.1.15,2013-05-29 16:59:00,
2013-05-29 12:05:00,83.9,70.0,29.98,WSW,238,5.0,6.0,63,0.00,,,0.00,Wunderground v.1.15,2013-05-29 17:05:00,
2013-05-29 12:10:00,84.3,69.4,29.98,West,281,4.0,4.0,61,0.00,,,0.00,Wunderground v.1.15,2013-05-29 17:10:00,
2013-05-29 12:15:00,84.4,68.0,29.98,WNW,293,4.0,11.0,58,0.00,,,0.00,Wunderground v.1.15,2013-05-29 17:15:00,
2013-05-29 12:20:00,84.3,67.9,29.98,SSW,209,6.0,6.0,58,0.00,,,0.00,Wunderground v.1.15,2013-05-29 17:20:00,
2013-05-29 12:26:00,84.3,67.9,29.98,SW,226,5.0,6.0,58,0.00,,,0.00,Wunderground v.1.15,2013-05-29 17:26:00,
2013-05-29 12:31:00,84.5,69.6,29.98,SW,221,3.0,3.0,61,0.00,,,0.00,Wunderground v.1.15,2013-05-29 17:31:00,
2013-05-29 12:36:00,84.9,69.0,29.97,WSW,254,3.0,7.0,59,0.00,,,0.00,Wunderground v.1.15,2013-05-29 17:36:00,
2013-05-29 12:42:00,84.8,68.4,29.98,West,269,4.0,4.0,58,0.00,,,0.00,Wunderground v.1.15,2013-05-29 17:42:00,
2013-05-29 12:47:00,84.5,68.1,29.98,SW,232,4.0,8.0,58,0.00,,,0.00,Wunderground v.1.15,2013-05-29 17:47:00,
2013-05-29 12:52:00,84.7,67.8,29.97,ESE,104,4.0,7.0,57,0.00,,,0.00,Wunderground v.1.15,2013-05-29 17:52:00,
2013-05-29 12:57:00,85.0,68.6,29.97,WSW,240,4.0,11.0,58,0.00,,,0.00,Wunderground v.1.15,2013-05-29 17:57:00,
2013-05-29 13:03:00,84.7,67.8,29.97,WNW,284,5.0,7.0,57,0.00,,,0.00,Wunderground v.1.15,2013-05-29 18:03:00,
2013-05-29 13:09:00,84.8,67.4,29.97,WNW,284,4.0,7.0,56,0.00,,,0.00,Wunderground v.1.15,2013-05-29 18:09:00,
2013-05-29 13:14:00,84.7,66.7,29.97,SW,214,3.0,6.0,55,0.00,,,0.00,Wunderground v.1.15,2013-05-29 18:14:00,
2013-05-29 13:19:00,84.7,67.3,29.97,WNW,294,4.0,6.0,56,0.00,,,0.00,Wunderground v.1.15,2013-05-29 18:19:00,
2013-05-29 13:25:00,84.8,66.8,29.97,SW,221,4.0,8.0,55,0.00,,,0.00,Wunderground v.1.15,2013-05-29 18:25:00,
2013-05-29 13:30:00,84.8,66.8,29.97,SW,214,3.0,3.0,55,0.00,,,0.00,Wunderground v.1.15,2013-05-29 18:30:00,
2013-05-29 13:35:00,85.0,66.5,29.97,SW,233,3.0,7.0,54,0.00,,,0.00,Wunderground v.1.15,2013-05-29 18:35:00,
2013-05-29 13:40:00,85.3,66.8,29.96,SW,232,4.0,6.0,54,0.00,,,0.00,Wunderground v.1.15,2013-05-29 18:40:00,
2013-05-29 13:45:00,85.6,66.5,29.96,NW,325,4.0,6.0,53,0.00,,,0.00,Wunderground v.1.15,2013-05-29 18:45:00,
2013-05-29 13:51:00,85.8,67.8,29.96,ENE,69,3.0,8.0,55,0.00,,,0.00,Wunderground v.1.15,2013-05-29 18:51:00,
2013-05-29 13:56:00,85.5,67.0,29.96,ESE,107,4.0,8.0,54,0.00,,,0.00,Wunderground v.1.15,2013-05-29 18:56:00,
2013-05-29 14:02:00,86.0,67.4,29.96,SSW,210,3.0,6.0,54,0.00,,,0.00,Wunderground v.1.15,2013-05-29 19:02:00,
2013-05-29 14:07:00,86.1,67.0,29.96,WSW,258,4.0,8.0,53,0.00,,,0.00,Wunderground v.1.15,2013-05-29 19:07:00,
2013-05-29 14:12:00,86.3,67.7,29.96,WNW,295,4.0,6.0,54,0.00,,,0.00,Wunderground v.1.15,2013-05-29 19:12:00,
2013-05-29 14:17:00,86.3,67.2,29.95,SE,142,4.0,6.0,53,0.00,,,0.00,Wunderground v.1.15,2013-05-29 19:17:00,
2013-05-29 14:22:00,86.5,67.3,29.95,SE,127,3.0,6.0,53,0.00,,,0.00,Wunderground v.1.15,2013-05-29 19:22:00,
2013-05-29 14:28:00,86.0,65.8,29.95,WSW,238,3.0,6.0,51,0.00,,,0.00,Wunderground v.1.15,2013-05-29 19:28:00,
2013-05-29 14:33:00,86.2,67.6,29.95,WSW,249,3.0,5.0,54,0.00,,,0.00,Wunderground v.1.15,2013-05-29 19:33:00,
2013-05-29 14:38:00,86.6,66.3,29.95,SW,217,2.0,5.0,51,0.00,,,0.00,Wunderground v.1.15,2013-05-29 19:38:00,
2013-05-29 14:44:00,86.9,65.4,29.95,WNW,295,3.0,4.0,49,0.00,,,0.00,Wunderground v.1.15,2013-05-29 19:44:00,
2013-05-29 14:49:00,86.9,66.6,29.95,SSE,159,3.0,4.0,51,0.00,,,0.00,Wunderground v.1.15,2013-05-29 19:49:00,
2013-05-29 14:54:00,86.9,66.0,29.94,SSE,153,4.0,8.0,50,0.00,,,0.00,Wunderground v.1.15,2013-05-29 19:54:00,
2013-05-29 14:59:00,86.6,65.7,29.95,South,187,3.0,8.0,50,0.00,,,0.00,Wunderground v.1.15,2013-05-29 19:59:00,
2013-05-29 15:05:00,86.6,66.9,29.94,SE,144,3.0,5.0,52,0.00,,,0.00,Wunderground v.1.15,2013-05-29 20:05:00,
2013-05-29 15:10:00,86.4,65.6,29.95,SSE,147,3.0,3.0,50,0.00,,,0.00,Wunderground v.1.15,2013-05-29 20:10:00,
2013-05-29 15:16:00,86.2,65.9,29.94,East,82,3.0,4.0,51,0.00,,,0.00,Wunderground v.1.15,2013-05-29 20:16:00,
2013-05-29 15:21:00,86.0,66.3,29.94,East,90,3.0,7.0,52,0.00,,,0.00,Wunderground v.1.15,2013-05-29 20:21:00,
2013-05-29 15:26:00,86.1,67.5,29.94,West,259,3.0,7.0,54,0.00,,,0.00,Wunderground v.1.15,2013-05-29 20:26:00,
2013-05-29 15:32:00,86.0,66.3,29.94,SW,236,3.0,10.0,52,0.00,,,0.00,Wunderground v.1.15,2013-05-29 20:32:00,
2013-05-29 15:37:00,86.0,65.8,29.94,SSW,207,3.0,10.0,51,0.00,,,0.00,Wunderground v.1.15,2013-05-29 20:37:00,
2013-05-29 15:42:00,86.4,66.7,29.94,SSE,151,3.0,4.0,52,0.00,,,0.00,Wunderground v.1.15,2013-05-29 20:42:00,
2013-05-29 15:47:00,86.4,65.6,29.94,WSW,239,3.0,5.0,50,0.00,,,0.00,Wunderground v.1.15,2013-05-29 20:47:00,
2013-05-29 15:53:00,86.3,65.5,29.94,SW,218,4.0,7.0,50,0.00,,,0.00,Wunderground v.1.15,2013-05-29 20:53:00,
2013-05-29 15:58:00,86.1,65.3,29.93,SW,221,3.0,7.0,50,0.00,,,0.00,Wunderground v.1.15,2013-05-29 20:58:00,
2013-05-29 16:04:00,85.6,64.8,29.93,SSE,166,3.0,4.0,50,0.00,,,0.00,Wunderground v.1.15,2013-05-29 21:04:00,
2013-05-29 16:09:00,85.2,65.0,29.94,SSE,158,3.0,5.0,51,0.00,,,0.00,Wunderground v.1.15,2013-05-29 21:09:00,
2013-05-29 16:14:00,85.0,64.8,29.93,WSW,256,3.0,7.0,51,0.00,,,0.00,Wunderground v.1.15,2013-05-29 21:14:00,
2013-05-29 16:19:00,85.0,64.8,29.94,WSW,243,2.0,7.0,51,0.00,,,0.00,Wunderground v.1.15,2013-05-29 21:19:00,
2013-05-29 16:25:00,85.4,64.6,29.93,WSW,242,2.0,7.0,50,0.00,,,0.00,Wunderground v.1.15,2013-05-29 21:25:00,
2013-05-29 16:30:00,85.4,65.2,29.93,WNW,295,4.0,4.0,51,0.00,,,0.00,Wunderground v.1.15,2013-05-29 21:30:00,
2013-05-29 16:35:00,86.0,65.2,29.93,West,281,3.0,4.0,50,0.00,,,0.00,Wunderground v.1.15,2013-05-29 21:35:00,
2013-05-29 16:40:00,86.2,64.8,29.93,ESE,105,3.0,3.0,49,0.00,,,0.00,Wunderground v.1.15,2013-05-29 21:40:00,
2013-05-29 16:46:00,86.5,65.1,29.93,NE,39,3.0,5.0,49,0.00,,,0.00,Wunderground v.1.15,2013-05-29 21:46:00,
2013-05-29 16:51:00,86.7,65.3,29.93,West,269,3.0,3.0,49,0.00,,,0.00,Wunderground v.1.15,2013-05-29 21:51:00,
2013-05-29 16:56:00,87.1,66.2,29.93,WSW,238,3.0,6.0,50,0.00,,,0.00,Wunderground v.1.15,2013-05-29 21:56:00,
2013-05-29 17:02:00,87.4,67.1,29.93,SSE,150,2.0,4.0,51,0.00,,,0.00,Wunderground v.1.15,2013-05-29 22:02:00,
2013-05-29 17:07:00,87.3,65.2,29.93,ESE,123,4.0,5.0,48,0.00,,,0.00,Wunderground v.1.15,2013-05-29 22:07:00,
2013-05-29 17:12:00,87.3,65.8,29.92,WSW,245,4.0,4.0,49,0.00,,,0.00,Wunderground v.1.15,2013-05-29 22:12:00,
2013-05-29 17:17:00,87.4,65.9,29.92,WSW,240,3.0,4.0,49,0.00,,,0.00,Wunderground v.1.15,2013-05-29 22:17:00,
2013-05-29 17:23:00,87.4,64.1,29.92,SSW,210,3.0,6.0,46,0.00,,,0.00,Wunderground v.1.15,2013-05-29 22:23:00,
2013-05-29 17:28:00,87.4,64.7,29.92,WSW,239,3.0,6.0,47,0.00,,,0.00,Wunderground v.1.15,2013-05-29 22:28:00,
2013-05-29 17:33:00,87.3,65.2,29.92,WSW,252,3.0,7.0,48,0.00,,,0.00,Wunderground v.1.15,2013-05-29 22:33:00,
2013-05-29 17:38:00,87.2,65.7,29.91,SW,221,3.0,7.0,49,0.00,,,0.00,Wunderground v.1.15,2013-05-29 22:38:00,
2013-05-29 17:43:00,87.2,66.9,29.91,ENE,61,3.0,13.0,51,0.00,,,0.00,Wunderground v.1.15,2013-05-29 22:43:00,
2013-05-29 17:48:00,87.2,66.3,29.91,SW,224,3.0,13.0,50,0.00,,,0.00,Wunderground v.1.15,2013-05-29 22:48:00,
2013-05-29 17:53:00,87.4,66.5,29.91,SE,127,3.0,4.0,50,0.00,,,0.00,Wunderground v.1.15,2013-05-29 22:53:00,
2013-05-29 17:59:00,87.4,67.6,29.91,NE,41,3.0,6.0,52,0.00,,,0.00,Wunderground v.1.15,2013-05-29 22:59:00,
2013-05-29 18:05:00,87.0,66.7,29.91,SSW,203,3.0,5.0,51,0.00,,,0.00,Wunderground v.1.15,2013-05-29 23:05:00,
2013-05-29 18:10:00,86.6,67.4,29.91,SE,124,3.0,7.0,53,0.00,,,0.00,Wunderground v.1.15,2013-05-29 23:10:00,
2013-05-29 18:15:00,86.2,67.1,29.90,South,169,4.0,8.0,53,0.00,,,0.00,Wunderground v.1.15,2013-05-29 23:15:00,
2013-05-29 18:21:00,85.7,67.1,29.90,SSE,167,3.0,4.0,54,0.00,,,0.00,Wunderground v.1.15,2013-05-29 23:21:00,
2013-05-29 18:26:00,85.6,67.6,29.91,East,101,2.0,4.0,55,0.00,,,0.00,Wunderground v.1.15,2013-05-29 23:26:00,
2013-05-29 18:31:00,85.6,68.1,29.91,East,100,1.0,8.0,56,0.00,,,0.00,Wunderground v.1.15,2013-05-29 23:31:00,
2013-05-29 18:36:00,85.5,68.5,29.91,SW,215,1.0,10.0,57,0.00,,,0.00,Wunderground v.1.15,2013-05-29 23:36:00,
2013-05-29 18:42:00,85.1,67.6,29.91,West,271,2.0,7.0,56,0.00,,,0.00,Wunderground v.1.15,2013-05-29 23:42:00,
2013-05-29 18:47:00,84.7,68.3,29.91,ESE,103,2.0,7.0,58,0.00,,,0.00,Wunderground v.1.15,2013-05-29 23:47:00,
2013-05-29 18:52:00,84.5,68.6,29.91,WSW,255,1.0,3.0,59,0.00,,,0.00,Wunderground v.1.15,2013-05-29 23:52:00,
2013-05-29 18:58:00,83.9,68.5,29.90,SW,218,2.0,5.0,60,0.00,,,0.00,Wunderground v.1.15,2013-05-29 23:58:00,
2013-05-29 19:03:00,83.5,68.2,29.91,East,94,1.0,1.0,60,0.00,,,0.00,Wunderground v.1.15,2013-05-30 00:03:00,
2013-05-29 19:09:00,83.1,68.3,29.90,West,277,0.0,1.0,61,0.00,,,0.00,Wunderground v.1.15,2013-05-30 00:09:00,
2013-05-29 19:14:00,82.7,68.4,29.91,East,90,0.0,0.0,62,0.00,,,0.00,Wunderground v.1.15,2013-05-30 00:14:00,
2013-05-29 19:19:00,82.3,69.4,29.90,East,100,0.0,1.0,65,0.00,,,0.00,Wunderground v.1.15,2013-05-30 00:19:00,
2013-05-29 19:24:00,81.6,68.7,29.90,East,79,0.0,1.0,65,0.00,,,0.00,Wunderground v.1.15,2013-05-30 00:24:00,
2013-05-29 19:29:00,81.2,68.8,29.90,SW,215,0.0,1.0,66,0.00,,,0.00,Wunderground v.1.15,2013-05-30 00:29:00,
2013-05-29 19:34:00,81.1,68.7,29.90,ESE,102,0.0,1.0,66,0.00,,,0.00,Wunderground v.1.15,2013-05-30 00:34:00,
2013-05-29 19:39:00,81.2,69.2,29.90,ENE,76,0.0,1.0,67,0.00,,,0.00,Wunderground v.1.15,2013-05-30 00:39:00,
2013-05-29 19:44:00,81.1,69.1,29.89,SE,131,1.0,4.0,67,0.00,,,0.00,Wunderground v.1.15,2013-05-30 00:44:00,
2013-05-29 19:49:00,80.8,69.2,29.89,ENE,69,1.0,4.0,68,0.00,,,0.00,Wunderground v.1.15,2013-05-30 00:49:00,
2013-05-29 19:55:00,80.5,69.0,29.89,ESE,117,0.0,3.0,68,0.00,,,0.00,Wunderground v.1.15,2013-05-30 00:55:00,
2013-05-29 20:00:00,80.2,68.7,29.90,ESE,107,0.0,0.0,68,0.00,,,0.00,Wunderground v.1.15,2013-05-30 01:00:00,
2013-05-29 20:06:00,79.9,68.8,29.89,North,356,0.0,2.0,69,0.00,,,0.00,Wunderground v.1.15,2013-05-30 01:06:00,
2013-05-29 20:11:00,79.5,68.4,29.90,ESE,103,0.0,0.0,69,0.00,,,0.00,Wunderground v.1.15,2013-05-30 01:11:00,
2013-05-29 20:16:00,79.0,68.4,29.90,ESE,115,0.0,0.0,70,0.00,,,0.00,Wunderground v.1.15,2013-05-30 01:16:00,
2013-05-29 20:21:00,78.5,68.3,29.89,NE,53,0.0,0.0,71,0.00,,,0.00,Wunderground v.1.15,2013-05-30 01:21:00,
2013-05-29 20:26:00,78.2,68.4,29.89,SE,124,0.0,0.0,72,0.00,,,0.00,Wunderground v.1.15,2013-05-30 01:26:00,
2013-05-29 20:32:00,77.7,68.4,29.89,ESE,106,0.0,0.0,73,0.00,,,0.00,Wunderground v.1.15,2013-05-30 01:32:00,
2013-05-29 20:37:00,77.4,68.1,29.90,SSW,201,0.0,0.0,73,0.00,,,0.00,Wunderground v.1.15,2013-05-30 01:37:00,
2013-05-29 20:42:00,77.3,68.0,29.90,NW,308,0.0,0.0,73,0.00,,,0.00,Wunderground v.1.15,2013-05-30 01:42:00,
2013-05-29 20:48:00,77.2,67.9,29.90,SE,139,0.0,0.0,73,0.00,,,0.00,Wunderground v.1.15,2013-05-30 01:48:00,
2013-05-29 20:53:00,76.9,68.0,29.90,East,85,0.0,0.0,74,0.00,,,0.00,Wunderground v.1.15,2013-05-30 01:53:00,
2013-05-29 20:58:00,76.8,67.9,29.90,SW,225,0.0,2.0,74,0.00,,,0.00,Wunderground v.1.15,2013-05-30 01:58:00,
2013-05-29 21:04:00,76.8,67.5,29.90,SW,231,0.0,1.0,73,0.00,,,0.00,Wunderground v.1.15,2013-05-30 02:04:00,
2013-05-29 21:09:00,76.8,67.5,29.90,WSW,256,0.0,2.0,73,0.00,,,0.00,Wunderground v.1.15,2013-05-30 02:09:00,
2013-05-29 21:14:00,76.8,67.5,29.90,ESE,118,0.0,4.0,73,0.00,,,0.00,Wunderground v.1.15,2013-05-30 02:14:00,
2013-05-29 21:20:00,76.8,67.1,29.90,SW,235,0.0,0.0,72,0.00,,,0.00,Wunderground v.1.15,2013-05-30 02:20:00,
2013-05-29 21:25:00,76.6,66.9,29.90,ESE,109,0.0,0.0,72,0.00,,,0.00,Wunderground v.1.15,2013-05-30 02:25:00,
2013-05-29 21:30:00,76.6,66.9,29.90,SSE,165,0.0,0.0,72,0.00,,,0.00,Wunderground v.1.15,2013-05-30 02:30:00,
2013-05-29 21:36:00,76.4,66.3,29.90,SSE,156,0.0,0.0,71,0.00,,,0.00,Wunderground v.1.15,2013-05-30 02:36:00,
2013-05-29 21:41:00,76.4,66.3,29.90,ESE,117,0.0,1.0,71,0.00,,,0.00,Wunderground v.1.15,2013-05-30 02:41:00,
2013-05-29 21:46:00,76.6,66.5,29.90,East,96,0.0,3.0,71,0.00,,,0.00,Wunderground v.1.15,2013-05-30 02:46:00,
2013-05-29 21:51:00,76.5,66.4,29.91,SE,137,0.0,0.0,71,0.00,,,0.00,Wunderground v.1.15,2013-05-30 02:51:00,
2013-05-29 21:57:00,76.5,66.0,29.91,SE,128,0.0,0.0,70,0.00,,,0.00,Wunderground v.1.15,2013-05-30 02:57:00,
2013-05-29 22:03:00,76.7,66.6,29.91,SW,217,1.0,3.0,71,0.00,,,0.00,Wunderground v.1.15,2013-05-30 03:03:00,
2013-05-29 22:08:00,76.7,66.2,29.92,West,264,1.0,3.0,70,0.00,,,0.00,Wunderground v.1.15,2013-05-30 03:08:00,
2013-05-29 22:13:00,76.6,66.5,29.92,SSE,157,0.0,1.0,71,0.00,,,0.00,Wunderground v.1.15,2013-05-30 03:13:00,
2013-05-29 22:18:00,76.5,66.0,29.92,WSW,238,0.0,1.0,70,0.00,,,0.00,Wunderground v.1.15,2013-05-30 03:18:00,
2013-05-29 22:23:00,76.3,66.2,29.92,East,91,0.0,0.0,71,0.00,,,0.00,Wunderground v.1.15,2013-05-30 03:23:00,
2013-05-29 22:28:00,76.0,66.3,29.92,ESE,102,0.0,2.0,72,0.00,,,0.00,Wunderground v.1.15,2013-05-30 03:28:00,
2013-05-29 22:33:00,75.7,66.0,29.92,SE,129,0.0,3.0,72,0.00,,,0.00,Wunderground v.1.15,2013-05-30 03:33:00,
2013-05-29 22:39:00,75.4,66.1,29.92,East,91,0.0,3.0,73,0.00,,,0.00,Wunderground v.1.15,2013-05-30 03:39:00,
2013-05-29 22:44:00,75.3,66.0,29.93,ESE,122,0.0,2.0,73,0.00,,,0.00,Wunderground v.1.15,2013-05-30 03:44:00,
2013-05-29 22:49:00,75.2,65.9,29.93,ESE,107,1.0,2.0,73,0.00,,,0.00,Wunderground v.1.15,2013-05-30 03:49:00,
2013-05-29 22:55:00,75.0,66.1,29.93,ESE,118,0.0,1.0,74,0.00,,,0.00,Wunderground v.1.15,2013-05-30 03:55:00,
2013-05-29 23:00:00,74.6,66.1,29.94,ESE,118,0.0,0.0,75,0.00,,,0.00,Wunderground v.1.15,2013-05-30 04:00:00,
2013-05-29 23:01:00,74.6,66.1,29.94,ESE,118,0.0,0.0,75,0.00,,,0.00,Wunderground v.1.15,2013-05-30 04:01:00,
2013-05-29 23:02:00,74.4,66.3,29.94,ESE,118,0.0,0.0,76,0.00,,,0.00,Wunderground v.1.15,2013-05-30 04:02:00,
2013-05-29 23:05:00,74.2,66.1,29.94,East,82,0.0,0.0,76,0.00,,,0.00,Wunderground v.1.15,2013-05-30 04:05:00,
2013-05-29 23:06:00,74.2,66.1,29.94,East,91,0.0,0.0,76,0.00,,,0.00,Wunderground v.1.15,2013-05-30 04:06:00,
2013-05-29 23:08:00,74.1,66.0,29.94,ESE,117,0.0,0.0,76,0.00,,,0.00,Wunderground v.1.15,2013-05-30 04:08:00,
2013-05-29 23:14:00,74.0,66.3,29.94,SE,135,0.0,0.0,77,0.00,,,0.00,Wunderground v.1.15,2013-05-30 04:14:00,
2013-05-29 23:19:00,73.7,66.0,29.94,SE,135,0.0,0.0,77,0.00,,,0.00,Wunderground v.1.15,2013-05-30 04:19:00,
2013-05-29 23:25:00,73.2,66.3,29.94,ESE,120,0.0,0.0,79,0.00,,,0.00,Wunderground v.1.15,2013-05-30 04:25:00,
2013-05-29 23:30:00,72.7,66.2,29.94,ESE,120,0.0,0.0,80,0.00,,,0.00,Wunderground v.1.15,2013-05-30 04:30:00,
2013-05-29 23:36:00,72.2,66.0,29.95,ESE,120,0.0,0.0,81,0.00,,,0.00,Wunderground v.1.15,2013-05-30 04:36:00,
2013-05-29 23:41:00,71.8,66.0,29.95,ESE,120,0.0,0.0,82,0.00,,,0.00,Wunderground v.1.15,2013-05-30 04:41:00,
2013-05-29 23:46:00,71.5,66.1,29.95,ESE,120,0.0,0.0,83,0.00,,,0.00,Wunderground v.1.15,2013-05-30 04:46:00,
2013-05-29 23:51:00,71.2,65.8,29.95,ESE,120,0.0,0.0,83,0.00,,,0.00,Wunderground v.1.15,2013-05-30 04:51:00,
2013-05-29 23:57:00,71.0,65.9,29.95,ESE,120,0.0,0.0,84,0.00,,,0.00,Wunderground v.1.15,2013-05-30 04:57:00,